createdAt,value
2023-03-26T00:02:56.041Z,97548.02
2023-03-26T00:08:17.932Z,97563.42
2023-03-26T00:13:41.576Z,97570.63
2023-03-26T00:19:04.198Z,97542.70
2023-03-26T00:24:29.695Z,97531.90
2023-03-26T00:29:51.115Z,97530.31
2023-03-26T00:35:13.370Z,97528.38
2023-03-26T00:40:36.890Z,97522.18
2023-03-26T00:45:59.413Z,97515.16
2023-03-26T00:51:21.753Z,97507.29
2023-03-26T00:56:43.415Z,97500.08
2023-03-26T01:02:06.855Z,97495.61
2023-03-26T01:07:29.157Z,97493.70
2023-03-26T01:12:50.958Z,97488.02
2023-03-26T01:18:14.293Z,97487.11
2023-03-26T01:23:44.751Z,97478.70
2023-03-26T01:29:09.989Z,97480.54
2023-03-26T01:34:43.062Z,97483.07
2023-03-26T01:40:10.311Z,97482.15
2023-03-26T01:45:35.057Z,97481.63
2023-03-26T01:50:58.981Z,97479.38
2023-03-26T01:56:51.078Z,97486.20
2023-03-26T02:02:15.495Z,97483.45
2023-03-26T02:08:00.463Z,97483.27
2023-03-26T02:13:22.744Z,97484.66
2023-03-26T02:18:45.863Z,97494.06
2023-03-26T02:24:08.657Z,97495.28
2023-03-26T02:29:31.690Z,97491.21
2023-03-26T02:34:53.822Z,97470.19
2023-03-26T02:40:18.375Z,97473.66
2023-03-26T02:45:40.376Z,97468.73
2023-03-26T02:51:03.168Z,97457.94
2023-03-26T02:56:51.962Z,97457.74
2023-03-26T03:02:34.394Z,97457.73
2023-03-26T03:08:09.964Z,97460.27
2023-03-26T03:13:32.954Z,97455.48
2023-03-26T03:18:58.128Z,97451.71
2023-03-26T03:24:27.280Z,97445.89
2023-03-26T03:29:49.187Z,97444.66
2023-03-26T03:35:41.716Z,97441.56
2023-03-26T03:41:03.862Z,97450.10
2023-03-26T03:46:26.682Z,97452.64
2023-03-26T03:51:48.830Z,97461.71
2023-03-26T03:57:33.394Z,97467.20
2023-03-26T04:02:59.014Z,97466.71
2023-03-26T04:08:22.899Z,97471.34
2023-03-26T04:13:47.337Z,97466.41
2023-03-26T04:19:22.997Z,97459.10
2023-03-26T04:24:45.751Z,97462.34
2023-03-26T04:30:24.032Z,97462.19
2023-03-26T04:35:52.218Z,97466.45
2023-03-26T04:41:15.928Z,97461.33
2023-03-26T04:46:53.128Z,97464.37
2023-03-26T04:52:21.253Z,97461.45
2023-03-26T04:58:06.077Z,97453.08
2023-03-26T05:03:45.995Z,97447.27
2023-03-26T05:09:10.922Z,97446.57
2023-03-26T05:14:52.322Z,97458.36
2023-03-26T05:20:24.456Z,97454.23
2023-03-26T05:25:47.271Z,97453.89
2023-03-26T05:31:17.026Z,97458.36
2023-03-26T05:36:41.083Z,97458.55
2023-03-26T05:42:22.080Z,97460.11
2023-03-26T05:48:01.842Z,97459.64
2023-03-26T05:53:25.620Z,97462.25
2023-03-26T05:59:08.210Z,97467.42
2023-03-26T06:04:51.171Z,97467.63
2023-03-26T06:10:23.916Z,97466.13
2023-03-26T06:15:46.343Z,97467.72
2023-03-26T06:21:19.480Z,97463.52
2023-03-26T06:26:48.634Z,97467.31
2023-03-26T06:32:43.221Z,97468.84
2023-03-26T06:38:11.310Z,97466.63
2023-03-26T06:43:34.007Z,97470.91
2023-03-26T06:49:27.512Z,97475.84
2023-03-26T06:55:10.619Z,97471.40
2023-03-26T07:00:54.952Z,97477.77
2023-03-26T07:06:36.413Z,97477.77
2023-03-26T07:12:19.826Z,97480.88
2023-03-26T07:18:11.516Z,97485.34
2023-03-26T07:23:35.600Z,97481.08
2023-03-26T07:29:47.457Z,97479.55
2023-03-26T07:35:49.367Z,97476.98
2023-03-26T07:41:59.873Z,97475.45
2023-03-26T07:47:42.514Z,97477.83
2023-03-26T07:53:15.731Z,97479.85
2023-03-26T07:59:19.336Z,97483.59
2023-03-26T08:05:19.072Z,97482.19
2023-03-26T08:11:23.954Z,97484.41
2023-03-26T08:16:48.503Z,97487.34
2023-03-26T08:22:26.455Z,97486.45
2023-03-26T08:28:05.263Z,97479.88
2023-03-26T08:33:28.101Z,97471.61
2023-03-26T08:38:52.633Z,97466.90
2023-03-26T08:44:36.846Z,97466.63
2023-03-26T08:50:22.081Z,97464.44
2023-03-26T08:55:56.725Z,97454.20
2023-03-26T09:01:41.281Z,97448.05
2023-03-26T09:07:36.076Z,97447.86
2023-03-26T09:13:08.378Z,97465.65
2023-03-26T09:18:36.275Z,97460.88
2023-03-26T09:24:20.009Z,97460.10
2023-03-26T09:30:00.607Z,97459.28
2023-03-26T09:35:54.097Z,97451.17
2023-03-26T09:41:21.792Z,97444.98
2023-03-26T09:46:49.337Z,97443.96
2023-03-26T09:52:24.115Z,97439.02
2023-03-26T09:57:58.474Z,97447.16
2023-03-26T10:03:48.511Z,97446.27
2023-03-26T10:09:42.856Z,97437.02
2023-03-26T10:15:42.818Z,97435.55
2023-03-26T10:21:27.525Z,97438.17
2023-03-26T10:27:10.182Z,97442.70
2023-03-26T10:32:44.389Z,97445.39
2023-03-26T10:38:16.157Z,97446.04
2023-03-26T10:44:08.802Z,97435.39
2023-03-26T10:49:52.909Z,97426.08
2023-03-26T10:55:35.109Z,97415.95
2023-03-26T11:01:02.256Z,97401.77
2023-03-26T11:06:57.105Z,97401.77
2023-03-26T11:12:37.507Z,97391.85
2023-03-26T11:18:16.119Z,97392.78
2023-03-26T11:24:05.408Z,97384.68
2023-03-26T11:29:50.127Z,97377.59
2023-03-26T11:35:39.746Z,97376.11
2023-03-26T11:41:04.082Z,97361.49
2023-03-26T11:46:44.444Z,97359.65
2023-03-26T11:52:07.776Z,97355.36
2023-03-26T11:57:33.462Z,97346.67
2023-03-26T12:03:00.421Z,97338.38
2023-03-26T12:08:39.900Z,97330.56
2023-03-26T12:14:05.904Z,97323.70
2023-03-26T12:19:44.369Z,97311.90
2023-03-26T12:25:18.527Z,97305.61
2023-03-26T12:30:42.445Z,97302.84
2023-03-26T12:36:26.862Z,97292.39
2023-03-26T12:44:44.260Z,97286.50
2023-03-26T12:47:58.180Z,97276.39
2023-03-26T12:53:26.732Z,97263.42
2023-03-26T12:59:11.856Z,97260.97
2023-03-26T13:05:05.508Z,97259.39
2023-03-26T13:10:55.769Z,97258.83
2023-03-26T13:16:36.835Z,97256.98
2023-03-26T13:22:24.718Z,97244.94
2023-03-26T13:27:49.671Z,97237.19
2023-03-26T13:33:37.481Z,97227.20
2023-03-26T13:39:34.712Z,97226.63
2023-03-26T13:45:19.572Z,97222.13
2023-03-26T13:50:44.880Z,97218.39
2023-03-26T13:56:09.659Z,97214.76
2023-03-26T14:01:35.517Z,97216.75
2023-03-26T14:07:12.490Z,97211.20
2023-03-26T14:12:49.127Z,97206.79
2023-03-26T14:18:36.647Z,97205.18
2023-03-26T14:24:19.348Z,97201.94
2023-03-26T14:29:57.825Z,97195.92
2023-03-26T14:35:42.368Z,97186.89
2023-03-26T14:41:22.163Z,97180.41
2023-03-26T14:47:06.659Z,97179.53
2023-03-26T14:52:48.854Z,97179.27
2023-03-26T14:58:35.067Z,97184.80
2023-03-26T15:04:23.660Z,97177.65
2023-03-26T15:10:19.552Z,97171.31
2023-03-26T15:16:13.002Z,97165.97
2023-03-26T15:21:57.091Z,97162.83
2023-03-26T15:27:58.553Z,97160.01
2023-03-26T15:33:41.441Z,97147.05
2023-03-26T15:39:09.496Z,97151.86
2023-03-26T15:45:05.847Z,97151.01
2023-03-26T15:51:06.608Z,97145.83
2023-03-26T15:56:58.135Z,97144.52
2023-03-26T16:02:42.810Z,97138.13
2023-03-26T16:08:25.861Z,97129.42
2023-03-26T16:14:12.669Z,97127.91
2023-03-26T16:19:36.626Z,97127.02
2023-03-26T16:25:26.924Z,97124.10
2023-03-26T16:31:36.373Z,97123.94
2023-03-26T16:36:54.455Z,97120.95
2023-03-26T16:42:16.313Z,97122.37
2023-03-26T16:47:51.932Z,97118.23
2023-03-26T16:53:41.990Z,97121.61
2023-03-26T16:59:45.459Z,97120.95
2023-03-26T17:05:56.745Z,97123.08
2023-03-26T17:11:26.918Z,97126.85
2023-03-26T17:17:04.828Z,97126.73
2023-03-26T17:22:48.410Z,97123.35
2023-03-26T17:28:41.548Z,97123.77
2023-03-26T17:34:47.248Z,97131.98
2023-03-26T17:40:43.583Z,97139.80
2023-03-26T17:46:25.103Z,97146.14
2023-03-26T17:51:58.116Z,97145.16
2023-03-26T17:57:23.604Z,97145.06
2023-03-26T18:02:56.394Z,97143.42
2023-03-26T18:08:28.142Z,97143.32
2023-03-26T18:14:28.429Z,97143.93
2023-03-26T18:19:54.165Z,97147.81
2023-03-26T18:25:25.582Z,97140.84
2023-03-26T18:30:51.519Z,97136.98
2023-03-26T18:36:16.384Z,97134.80
2023-03-26T18:41:42.013Z,97135.89
2023-03-26T18:47:06.578Z,97145.55
2023-03-26T18:52:30.593Z,97147.48
2023-03-26T18:57:52.716Z,97148.67
2023-03-26T19:03:21.222Z,97143.02
2023-03-26T19:08:45.138Z,97141.12
2023-03-26T19:14:20.179Z,97135.17
2023-03-26T19:19:43.039Z,97130.79
2023-03-26T19:25:05.282Z,97128.58
2023-03-26T19:30:34.355Z,97122.64
2023-03-26T19:36:05.055Z,97109.46
2023-03-26T19:41:32.691Z,97109.80
2023-03-26T19:47:03.181Z,97113.05
2023-03-26T19:52:25.988Z,97107.42
2023-03-26T19:57:49.556Z,97106.13
2023-03-26T20:03:11.836Z,97098.98
2023-03-26T20:08:34.153Z,97097.46
2023-03-26T20:13:57.242Z,97090.89
2023-03-26T20:19:19.380Z,97087.14
2023-03-26T20:24:44.625Z,97088.44
2023-03-26T20:30:08.054Z,97082.03
2023-03-26T20:35:35.580Z,97074.98
2023-03-26T20:41:01.877Z,97066.08
2023-03-26T20:46:30.949Z,97056.70
2023-03-26T20:51:54.273Z,97050.23
2023-03-26T20:57:19.281Z,97046.30
2023-03-26T21:02:45.637Z,97041.17
2023-03-26T21:08:16.169Z,97024.38
2023-03-26T21:13:49.464Z,97012.48
2023-03-26T21:19:12.565Z,97002.92
2023-03-26T21:24:49.828Z,97008.36
2023-03-26T21:30:17.103Z,97014.50
2023-03-26T21:35:40.679Z,97023.55
2023-03-26T21:41:03.773Z,97024.02
2023-03-26T21:46:26.321Z,97020.42
2023-03-26T21:51:49.032Z,97009.77
2023-03-26T21:57:35.871Z,96998.74
2023-03-26T22:03:23.186Z,96997.97
2023-03-26T22:08:46.659Z,96997.64
2023-03-26T22:14:16.366Z,96991.14
2023-03-26T22:19:38.266Z,96988.62
2023-03-26T22:25:00.229Z,96994.11
2023-03-26T22:30:22.012Z,96992.33
2023-03-26T22:35:44.741Z,96989.77
2023-03-26T22:41:07.729Z,96985.59
2023-03-26T22:46:31.170Z,96979.88
2023-03-26T22:51:53.080Z,96972.19
2023-03-26T22:57:16.167Z,96966.56
2023-03-26T23:02:38.715Z,96963.09
2023-03-26T23:08:00.467Z,96956.36
2023-03-26T23:13:22.804Z,96955.05
2023-03-26T23:18:44.793Z,96956.73
2023-03-26T23:24:06.964Z,96949.06
2023-03-26T23:29:30.399Z,96937.20
2023-03-26T23:34:52.775Z,96932.73
2023-03-26T23:40:15.201Z,96929.23
2023-03-26T23:45:37.772Z,96922.80
2023-03-26T23:51:04.437Z,96928.11
2023-03-26T23:56:27.902Z,96928.16
